createdAt,value
2023-03-03T02:05:33.364Z,3.42
2023-03-03T02:08:39.545Z,3.97
2023-03-03T02:11:47.046Z,4.40
2023-03-03T02:14:48.737Z,4.07
2023-03-03T02:17:53.500Z,3.95
2023-03-03T02:21:02.403Z,4.93
2023-03-03T02:24:09.328Z,4.15
2023-03-03T02:27:13.977Z,3.90
2023-03-03T02:30:20.790Z,5.90
2023-03-03T02:36:26.297Z,4.25
2023-03-03T02:39:30.476Z,3.72
2023-03-03T02:42:34.534Z,3.40
2023-03-03T02:45:45.502Z,3.60
2023-03-03T02:48:47.309Z,2.65
2023-03-03T02:51:52.275Z,3.15
2023-03-03T02:54:54.100Z,3.30
2023-03-03T02:57:57.692Z,3.00
2023-03-03T03:01:00.817Z,2.53
2023-03-03T03:04:06.520Z,4.38
2023-03-03T03:07:11.743Z,3.55
2023-03-03T03:10:14.242Z,3.90
2023-03-03T03:13:18.401Z,2.58
2023-03-03T03:16:20.108Z,3.47
2023-03-03T03:19:22.013Z,3.10
2023-03-03T03:22:24.054Z,3.28
2023-03-03T03:25:26.388Z,2.67
2023-03-03T03:28:29.800Z,2.38
2023-03-03T03:31:31.937Z,2.72
2023-03-03T03:34:33.625Z,3.63
2023-03-03T03:37:35.519Z,2.58
2023-03-03T03:40:37.358Z,3.58
2023-03-03T03:43:40.773Z,2.33
2023-03-03T03:46:42.624Z,2.80
2023-03-03T03:49:45.474Z,3.33
2023-03-03T03:52:47.881Z,3.42
2023-03-03T03:55:49.833Z,2.85
2023-03-03T03:58:54.488Z,3.38
2023-03-03T04:01:56.576Z,3.00
2023-03-03T04:04:59.673Z,3.20
2023-03-03T04:08:01.809Z,3.22
2023-03-03T04:11:03.663Z,4.28
2023-03-03T04:14:07.677Z,3.28
2023-03-03T04:17:16.777Z,2.92
2023-03-03T04:20:18.827Z,3.33
2023-03-03T04:23:21.509Z,2.25
2023-03-03T04:26:24.173Z,3.10
2023-03-03T04:29:27.785Z,2.28
2023-03-03T04:32:30.540Z,3.72
2023-03-03T04:35:32.451Z,2.90
2023-03-03T04:38:34.820Z,3.70
2023-03-03T04:41:37.105Z,2.38
2023-03-03T04:44:40.722Z,3.05
2023-03-03T04:47:43.250Z,3.17
2023-03-03T04:50:45.022Z,3.22
2023-03-03T04:53:47.380Z,2.53
2023-03-03T04:56:49.368Z,2.60
2023-03-03T04:59:53.469Z,3.40
2023-03-03T05:02:55.397Z,3.65
2023-03-03T05:05:58.536Z,2.85
2023-03-03T05:09:00.381Z,2.83
2023-03-03T05:12:02.225Z,2.67
2023-03-03T05:15:07.203Z,3.38
2023-03-03T05:18:09.018Z,2.58
2023-03-03T05:21:11.644Z,2.97
2023-03-03T05:24:14.648Z,3.25
2023-03-03T05:27:16.976Z,2.55
2023-03-03T05:30:20.286Z,3.17
2023-03-03T05:33:22.010Z,2.83
2023-03-03T05:36:23.959Z,2.63
2023-03-03T05:39:25.643Z,3.33
2023-03-03T05:42:27.527Z,2.88
2023-03-03T05:45:30.577Z,4.15
2023-03-03T05:48:32.414Z,3.83
2023-03-03T05:51:34.519Z,2.92
2023-03-03T05:54:36.468Z,3.75
2023-03-03T05:57:38.354Z,2.70
2023-03-03T06:00:41.592Z,3.70
2023-03-03T06:03:43.690Z,3.25
2023-03-03T06:06:45.675Z,2.83
2023-03-03T06:09:47.472Z,3.20
2023-03-03T06:12:49.198Z,4.03
2023-03-03T06:15:52.278Z,3.38
2023-03-03T06:18:54.104Z,2.90
2023-03-03T06:21:55.905Z,3.90
2023-03-03T06:24:57.821Z,3.45
2023-03-03T06:27:59.868Z,3.30
2023-03-03T06:31:03.067Z,3.22
2023-03-03T06:34:04.912Z,2.70
2023-03-03T06:37:06.820Z,2.95
2023-03-03T06:40:10.016Z,2.97
2023-03-03T06:43:12.115Z,4.00
2023-03-03T06:46:15.448Z,3.55
2023-03-03T06:49:17.549Z,2.53
2023-03-03T06:52:23.082Z,4.82
2023-03-03T06:55:24.805Z,4.25
2023-03-03T06:58:29.505Z,3.90
2023-03-03T07:01:37.108Z,4.28
2023-03-03T07:04:39.597Z,3.85
2023-03-03T07:07:41.583Z,5.90
2023-03-03T07:10:44.243Z,3.63
2023-03-03T07:13:48.489Z,3.67
2023-03-03T07:16:58.131Z,4.30
2023-03-03T07:20:01.973Z,4.45
2023-03-03T07:23:18.785Z,4.80
2023-03-03T07:26:23.836Z,4.50
2023-03-03T07:29:27.583Z,4.75
2023-03-03T07:32:39.931Z,3.55
2023-03-03T07:35:44.426Z,4.82
2023-03-03T07:38:53.043Z,5.13
2023-03-03T07:42:01.750Z,5.35
2023-03-03T07:45:23.581Z,6.05
2023-03-03T07:48:34.693Z,4.72
2023-03-03T07:51:43.978Z,5.65
2023-03-03T07:54:47.372Z,4.53
2023-03-03T07:57:51.714Z,4.80
2023-03-03T08:01:25.993Z,4.68
2023-03-03T08:04:39.139Z,4.50
2023-03-03T08:07:40.875Z,4.47
2023-03-03T08:10:48.210Z,4.93
2023-03-03T08:13:49.974Z,5.90
2023-03-03T08:16:51.813Z,5.82
2023-03-03T08:19:56.021Z,6.07
2023-03-03T08:22:57.893Z,5.97
2023-03-03T08:25:59.860Z,5.18
2023-03-03T08:29:01.645Z,5.20
2023-03-03T08:32:03.820Z,5.85
2023-03-03T08:35:07.637Z,6.30
2023-03-03T08:38:09.981Z,4.55
2023-03-03T08:41:11.935Z,6.40
2023-03-03T08:44:13.621Z,6.00
2023-03-03T08:47:15.688Z,5.57
2023-03-03T08:50:19.493Z,4.97
2023-03-03T08:53:22.915Z,5.25
2023-03-03T08:56:24.632Z,6.38
2023-03-03T08:59:26.245Z,4.55
2023-03-03T09:02:28.180Z,4.78
2023-03-03T09:05:31.673Z,6.40
2023-03-03T09:08:33.826Z,6.72
2023-03-03T09:11:35.528Z,4.95
2023-03-03T09:14:37.422Z,7.07
2023-03-03T09:17:43.850Z,7.50
2023-03-03T09:20:49.460Z,7.80
2023-03-03T09:23:55.582Z,6.63
2023-03-03T09:26:59.013Z,7.20
2023-03-03T09:30:02.684Z,7.50
2023-03-03T09:33:23.225Z,6.97
2023-03-03T09:36:35.691Z,6.85
2023-03-03T09:39:37.564Z,5.78
2023-03-03T09:43:04.238Z,4.82
2023-03-03T09:46:17.080Z,5.63
2023-03-03T09:49:30.610Z,7.70
2023-03-03T09:52:41.049Z,7.32
2023-03-03T09:55:54.168Z,3.75
2023-03-03T09:59:07.850Z,7.95
2023-03-03T10:02:38.435Z,7.22
2023-03-03T10:05:51.319Z,7.55
2023-03-03T10:09:04.610Z,7.10
2023-03-03T10:12:17.923Z,6.38
2023-03-03T10:15:40.447Z,7.97
2023-03-03T10:18:52.214Z,7.07
2023-03-03T10:22:00.576Z,9.75
2023-03-03T10:25:16.408Z,7.38
2023-03-03T10:28:43.638Z,6.80
2023-03-03T10:31:58.573Z,6.20
2023-03-03T10:35:23.316Z,8.15
2023-03-03T10:38:35.538Z,6.63
2023-03-03T10:41:50.321Z,7.45
2023-03-03T10:45:14.025Z,6.07
2023-03-03T10:48:41.039Z,6.82
2023-03-03T10:52:01.017Z,8.35
2023-03-03T10:55:30.606Z,8.65
2023-03-03T11:01:57.586Z,8.35
2023-03-03T11:05:29.547Z,6.80
2023-03-03T11:08:38.199Z,4.47
2023-03-03T11:11:47.436Z,6.10
2023-03-03T11:14:59.112Z,4.53
2023-03-03T11:18:15.072Z,8.00
2023-03-03T11:21:22.894Z,5.85
2023-03-03T11:24:40.275Z,6.88
2023-03-03T11:28:00.569Z,7.90
2023-03-03T11:31:13.764Z,4.60
2023-03-03T11:34:34.096Z,7.28
2023-03-03T11:37:41.887Z,7.50
2023-03-03T11:40:48.672Z,6.43
2023-03-03T11:43:55.223Z,7.28
2023-03-03T11:47:00.641Z,8.05
2023-03-03T11:50:08.592Z,7.15
2023-03-03T11:53:26.628Z,9.48
2023-03-03T11:56:38.274Z,7.22
2023-03-03T11:59:52.222Z,6.93
2023-03-03T12:03:26.531Z,6.13
2023-03-03T12:06:40.788Z,5.97
2023-03-03T12:09:49.882Z,6.95
2023-03-03T12:13:01.245Z,6.97
2023-03-03T12:16:11.113Z,7.57
2023-03-03T12:19:24.938Z,3.95
2023-03-03T12:22:34.662Z,6.63
2023-03-03T12:25:41.066Z,6.57
2023-03-03T12:28:50.267Z,5.22
2023-03-03T12:31:56.411Z,7.18
2023-03-03T12:35:06.524Z,7.30
2023-03-03T12:38:21.876Z,7.32
2023-03-03T12:41:31.525Z,6.97
2023-03-03T12:44:41.868Z,6.20
2023-03-03T12:47:50.177Z,4.60
2023-03-03T12:51:01.688Z,6.47
2023-03-03T12:54:19.305Z,6.75
2023-03-03T12:57:28.987Z,5.20
2023-03-03T13:00:43.005Z,4.32
2023-03-03T13:03:57.201Z,4.82
2023-03-03T13:07:07.747Z,4.72
2023-03-03T13:10:18.557Z,6.30
2023-03-03T13:13:27.187Z,6.45
2023-03-03T13:16:41.199Z,6.35
2023-03-03T13:19:52.058Z,6.15
2023-03-03T13:22:59.970Z,4.18
2023-03-03T13:26:14.374Z,7.00
2023-03-03T13:29:22.052Z,4.60
2023-03-03T13:32:30.954Z,5.95
2023-03-03T13:35:43.709Z,5.22
2023-03-03T13:38:49.276Z,5.68
2023-03-03T13:42:01.190Z,5.80
2023-03-03T13:45:12.816Z,5.68
2023-03-03T13:48:28.607Z,5.72
2023-03-03T13:51:43.802Z,4.68
2023-03-03T13:55:20.579Z,2.92
2023-03-03T13:58:40.608Z,5.30
2023-03-03T14:01:57.435Z,5.13
2023-03-03T14:05:02.271Z,5.05
2023-03-03T14:11:16.970Z,5.53
2023-03-03T14:14:31.549Z,6.15
2023-03-03T14:17:41.932Z,5.03
2023-03-03T14:20:48.428Z,4.43
2023-03-03T14:23:57.193Z,5.43
2023-03-03T14:27:00.523Z,6.28
2023-03-03T14:30:33.002Z,6.25
2023-03-03T14:33:35.118Z,5.50
2023-03-03T14:36:40.141Z,5.55
2023-03-03T14:39:48.908Z,5.93
2023-03-03T14:42:55.532Z,5.40
2023-03-03T14:46:30.366Z,5.75
2023-03-03T14:49:34.556Z,5.53
2023-03-03T14:52:38.859Z,5.55
2023-03-03T14:56:22.950Z,4.10
2023-03-03T14:59:26.978Z,5.90
2023-03-03T15:02:36.798Z,5.43
2023-03-03T15:05:50.850Z,5.35
2023-03-03T15:08:52.580Z,5.93
2023-03-03T15:11:55.225Z,4.53
2023-03-03T15:15:11.610Z,5.05
2023-03-03T15:18:16.836Z,5.45
2023-03-03T15:21:23.852Z,4.80
2023-03-03T15:24:35.372Z,3.90
2023-03-03T15:27:42.259Z,3.75
2023-03-03T15:30:50.695Z,4.78
2023-03-03T15:34:03.929Z,5.05
2023-03-03T15:37:18.031Z,5.22
2023-03-03T15:40:26.841Z,4.32
2023-03-03T15:43:37.619Z,4.47
2023-03-03T15:46:50.693Z,4.18
2023-03-03T15:50:10.855Z,3.63
2023-03-03T15:53:31.534Z,4.50
2023-03-03T15:56:41.438Z,5.30
2023-03-03T16:00:09.286Z,5.13
2023-03-03T16:03:17.310Z,3.85
2023-03-03T16:06:28.582Z,4.70
2023-03-03T16:09:45.027Z,3.75
2023-03-03T16:12:55.422Z,3.20
2023-03-03T16:16:09.176Z,3.53
2023-03-03T16:19:22.084Z,3.63
2023-03-03T16:22:40.958Z,3.22
2023-03-03T16:26:05.554Z,4.10
2023-03-03T16:29:30.894Z,3.38
2023-03-03T16:32:40.614Z,3.53
2023-03-03T16:35:50.644Z,3.70
2023-03-03T16:39:01.922Z,3.13
2023-03-03T16:45:23.963Z,2.90
2023-03-03T16:48:35.335Z,3.38
2023-03-03T16:51:49.233Z,3.47
2023-03-03T16:54:56.832Z,3.90
2023-03-03T16:58:12.701Z,4.25
2023-03-03T17:01:23.978Z,3.55
2023-03-03T17:04:39.912Z,4.40
2023-03-03T17:07:45.284Z,3.65
2023-03-03T17:10:54.047Z,3.53
2023-03-03T17:14:16.545Z,3.92
2023-03-03T17:17:29.114Z,3.42
2023-03-03T17:20:40.042Z,4.57
2023-03-03T17:23:51.975Z,4.72
2023-03-03T17:27:05.355Z,3.50
2023-03-03T17:30:16.896Z,4.82
2023-03-03T17:33:33.013Z,4.80
2023-03-03T17:36:49.526Z,5.05
2023-03-03T17:40:05.600Z,5.47
2023-03-03T17:43:15.072Z,5.40
2023-03-03T17:46:23.320Z,5.97
2023-03-03T17:49:54.501Z,5.45
2023-03-03T17:53:12.397Z,5.78
2023-03-03T17:56:19.600Z,5.47
2023-03-03T17:59:44.262Z,6.18
2023-03-03T18:03:27.906Z,6.88
2023-03-03T18:06:52.067Z,6.18
2023-03-03T18:10:17.962Z,5.70
2023-03-03T18:13:41.505Z,4.95
2023-03-03T18:20:08.161Z,4.97
2023-03-03T18:23:29.699Z,5.88
2023-03-03T18:26:40.587Z,4.47
2023-03-03T18:30:20.588Z,4.68
2023-03-03T18:33:41.483Z,5.90
2023-03-03T18:36:53.336Z,4.63
2023-03-03T18:40:34.190Z,4.95
2023-03-03T18:43:55.481Z,5.60
2023-03-03T18:46:59.207Z,4.82
2023-03-03T18:50:16.260Z,4.63
2023-03-03T18:53:28.184Z,4.25
2023-03-03T18:56:44.880Z,5.38
2023-03-03T18:59:55.286Z,3.95
2023-03-03T19:02:59.840Z,4.13
2023-03-03T19:06:04.922Z,4.75
2023-03-03T19:09:09.307Z,4.13
2023-03-03T19:12:13.659Z,4.13
2023-03-03T19:15:53.389Z,3.75
2023-03-03T19:19:00.095Z,3.92
2023-03-03T19:22:23.702Z,3.50
2023-03-03T19:25:27.825Z,3.17
2023-03-03T19:28:40.239Z,3.10
2023-03-03T19:31:49.190Z,3.55
2023-03-03T19:34:58.053Z,4.03
2023-03-03T19:38:15.506Z,3.20
2023-03-03T19:41:28.456Z,3.50
2023-03-03T19:44:46.300Z,2.92
2023-03-03T19:47:54.558Z,2.78
2023-03-03T19:51:04.395Z,3.50
2023-03-03T19:54:20.216Z,2.65
2023-03-03T19:57:37.099Z,2.63
2023-03-03T20:00:43.374Z,2.42
2023-03-03T20:04:16.522Z,3.47
2023-03-03T20:07:28.913Z,2.03
2023-03-03T20:10:49.364Z,3.25
2023-03-03T20:14:02.130Z,3.30
2023-03-03T20:17:24.599Z,2.58
2023-03-03T20:20:45.827Z,3.25
2023-03-03T20:24:00.166Z,2.00
2023-03-03T20:27:07.416Z,2.25
2023-03-03T20:30:22.156Z,2.78
2023-03-03T20:33:37.373Z,2.85
2023-03-03T20:36:52.267Z,2.80
2023-03-03T20:40:07.315Z,2.58
2023-03-03T20:43:26.214Z,2.53
2023-03-03T20:46:38.858Z,2.13
2023-03-03T20:50:04.511Z,2.38
2023-03-03T20:53:18.237Z,2.17
2023-03-03T20:56:24.444Z,3.13
2023-03-03T20:59:35.467Z,1.85
2023-03-03T21:02:46.987Z,2.63
2023-03-03T21:05:57.653Z,2.90
2023-03-03T21:08:59.542Z,2.10
2023-03-03T21:12:09.604Z,2.72
2023-03-03T21:15:24.131Z,2.10
2023-03-03T21:18:26.733Z,1.73
2023-03-03T21:21:31.262Z,1.95
2023-03-03T21:24:53.805Z,2.13
2023-03-03T21:28:13.136Z,2.55
2023-03-03T21:31:17.222Z,2.20
2023-03-03T21:34:22.278Z,2.25
2023-03-03T21:37:43.639Z,2.10
2023-03-03T21:40:59.277Z,2.80
2023-03-03T21:44:01.163Z,3.30
2023-03-03T21:47:05.031Z,2.95
2023-03-03T21:50:08.266Z,3.53
2023-03-03T21:53:10.064Z,2.83
2023-03-03T21:56:15.509Z,3.70
2023-03-03T22:02:20.702Z,2.25
2023-03-03T22:05:23.116Z,3.63
2023-03-03T22:08:24.919Z,2.97
2023-03-03T22:11:26.720Z,2.80
2023-03-03T22:14:28.728Z,3.58
2023-03-03T22:17:35.017Z,3.15
2023-03-03T22:20:36.722Z,4.60
2023-03-03T22:23:38.612Z,4.15
2023-03-03T22:26:40.483Z,3.53
2023-03-03T22:29:42.254Z,3.95
2023-03-03T22:32:45.366Z,4.28
2023-03-03T22:35:47.169Z,3.95
2023-03-03T22:38:49.184Z,3.05
2023-03-03T22:41:54.030Z,2.90
2023-03-03T22:44:56.364Z,3.40
2023-03-03T22:47:59.626Z,3.08
2023-03-03T22:51:01.367Z,3.38
2023-03-03T22:54:03.259Z,3.72
2023-03-03T22:57:04.975Z,3.53
2023-03-03T23:00:11.881Z,3.80
2023-03-03T23:03:15.984Z,3.70
2023-03-03T23:06:21.515Z,3.08
2023-03-03T23:09:23.436Z,2.80
2023-03-03T23:12:25.334Z,3.92
2023-03-03T23:15:27.800Z,2.42
2023-03-03T23:18:31.121Z,3.13
2023-03-03T23:21:33.599Z,3.17
2023-03-03T23:24:35.385Z,3.53
2023-03-03T23:27:37.712Z,2.65
2023-03-03T23:30:39.412Z,4.10
2023-03-03T23:33:42.444Z,3.00
2023-03-03T23:36:44.219Z,2.67
2023-03-03T23:39:46.214Z,2.80
2023-03-03T23:42:48.605Z,2.42
2023-03-03T23:45:50.349Z,2.72
2023-03-03T23:48:53.356Z,2.50
2023-03-03T23:51:55.120Z,3.28
2023-03-03T23:54:56.942Z,3.25
2023-03-03T23:57:58.806Z,2.08
